sensor_id;sensor_type;location;lat;lon;timestamp;pressure;altitude;pressure_sealevel;temperature;humidity
58879;BME280;44660;42.664;23.266;2022-10-16T00:01:25;95169.31;;;8.78;69.18
58879;BME280;44660;42.664;23.266;2022-10-16T00:03:51;95184.38;;;8.85;69.06
58879;BME280;44660;42.664;23.266;2022-10-16T00:06:18;95182.72;;;8.83;69.13
58879;BME280;44660;42.664;23.266;2022-10-16T00:08:44;95153.94;;;8.62;69.12
58879;BME280;44660;42.664;23.266;2022-10-16T00:13:41;95191.81;;;8.69;69.24
58879;BME280;44660;42.664;23.266;2022-10-16T00:16:09;95191.53;;;8.52;69.66
58879;BME280;44660;42.664;23.266;2022-10-16T00:18:35;95190.28;;;8.55;69.74
58879;BME280;44660;42.664;23.266;2022-10-16T00:21:07;95181.38;;;8.42;69.80
58879;BME280;44660;42.664;23.266;2022-10-16T00:23:33;95172.47;;;8.30;70.21
58879;BME280;44660;42.664;23.266;2022-10-16T00:26:00;95198.50;;;8.40;70.35
58879;BME280;44660;42.664;23.266;2022-10-16T00:28:26;95196.47;;;8.42;70.29
58879;BME280;44660;42.664;23.266;2022-10-16T00:30:52;95196.44;;;8.48;70.09
58879;BME280;44660;42.664;23.266;2022-10-16T00:33:18;95182.22;;;8.36;69.85
58879;BME280;44660;42.664;23.266;2022-10-16T00:35:43;95207.63;;;8.50;69.76
58879;BME280;44660;42.664;23.266;2022-10-16T00:38:09;95198.50;;;8.46;69.69
58879;BME280;44660;42.664;23.266;2022-10-16T00:40:35;95199.31;;;8.47;69.72
58879;BME280;44660;42.664;23.266;2022-10-16T00:43:00;95191.19;;;8.35;69.67
58879;BME280;44660;42.664;23.266;2022-10-16T00:45:26;95198.91;;;8.37;69.80
58879;BME280;44660;42.664;23.266;2022-10-16T00:47:52;95197.31;;;8.29;70.03
58879;BME280;44660;42.664;23.266;2022-10-16T00:50:27;95157.16;;;7.93;70.71
58879;BME280;44660;42.664;23.266;2022-10-16T00:52:54;95196.63;;;8.08;71.07
58879;BME280;44660;42.664;23.266;2022-10-16T00:55:21;95206.59;;;8.13;71.09
58879;BME280;44660;42.664;23.266;2022-10-16T00:57:47;95172.22;;;7.99;71.19
58879;BME280;44660;42.664;23.266;2022-10-16T01:00:17;95193.34;;;8.13;71.02
58879;BME280;44660;42.664;23.266;2022-10-16T01:02:43;95199.00;;;8.23;70.98
58879;BME280;44660;42.664;23.266;2022-10-16T01:05:09;95201.88;;;8.22;70.75
58879;BME280;44660;42.664;23.266;2022-10-16T01:07:43;95207.56;;;8.25;70.56
58879;BME280;44660;42.664;23.266;2022-10-16T01:10:27;95202.25;;;8.25;70.31
58879;BME280;44660;42.664;23.266;2022-10-16T01:13:07;95207.56;;;8.25;70.34
58879;BME280;44660;42.664;23.266;2022-10-16T01:15:58;95180.13;;;8.06;70.25
58879;BME280;44660;42.664;23.266;2022-10-16T01:18:44;95188.50;;;8.03;70.53
58879;BME280;44660;42.664;23.266;2022-10-16T01:21:15;95196.22;;;8.05;71.02
58879;BME280;44660;42.664;23.266;2022-10-16T01:23:50;95200.28;;;8.07;70.95
58879;BME280;44660;42.664;23.266;2022-10-16T01:35:52;95188.94;;;8.00;71.38
58879;BME280;44660;42.664;23.266;2022-10-16T01:38:04;95185.72;;;7.84;71.54
58879;BME280;44660;42.664;23.266;2022-10-16T01:40:34;95111.75;;;7.44;71.25
58879;BME280;44660;42.664;23.266;2022-10-16T01:43:06;95121.50;;;7.50;70.96
58879;BME280;44660;42.664;23.266;2022-10-16T01:45:32;95189.97;;;7.92;70.59
58879;BME280;44660;42.664;23.266;2022-10-16T01:48:00;95197.91;;;7.99;70.71
58879;BME280;44660;42.664;23.266;2022-10-16T01:50:31;95134.16;;;7.42;71.03
58879;BME280;44660;42.664;23.266;2022-10-16T01:52:59;95212.59;;;7.88;70.94
58879;BME280;44660;42.664;23.266;2022-10-16T01:55:33;95207.94;;;7.83;70.96
58879;BME280;44660;42.664;23.266;2022-10-16T01:58:01;95198.81;;;7.66;71.33
58879;BME280;44660;42.664;23.266;2022-10-16T02:00:29;95200.06;;;7.57;71.88
58879;BME280;44660;42.664;23.266;2022-10-16T02:02:57;95201.09;;;7.49;71.92
58879;BME280;44660;42.664;23.266;2022-10-16T02:05:31;95208.00;;;7.57;71.92
58879;BME280;44660;42.664;23.266;2022-10-16T02:07:59;95211.69;;;7.56;71.68
58879;BME280;44660;42.664;23.266;2022-10-16T02:10:25;95214.72;;;7.59;71.73
58879;BME280;44660;42.664;23.266;2022-10-16T02:12:57;95222.66;;;7.59;72.05
58879;BME280;44660;42.664;23.266;2022-10-16T02:15:24;95228.56;;;7.61;71.69
58879;BME280;44660;42.664;23.266;2022-10-16T02:17:49;95231.81;;;7.63;71.68
58879;BME280;44660;42.664;23.266;2022-10-16T02:20:15;95205.56;;;7.48;71.38
58879;BME280;44660;42.664;23.266;2022-10-16T02:22:45;95229.16;;;7.70;71.07
58879;BME280;44660;42.664;23.266;2022-10-16T02:25:22;95217.16;;;7.61;70.89
58879;BME280;44660;42.664;23.266;2022-10-16T02:28:12;95240.75;;;7.69;71.00
58879;BME280;44660;42.664;23.266;2022-10-16T02:30:57;95246.06;;;7.49;71.59
58879;BME280;44660;42.664;23.266;2022-10-16T02:33:25;95242.44;;;7.43;71.71
58879;BME280;44660;42.664;23.266;2022-10-16T02:35:53;95159.88;;;7.01;71.46
58879;BME280;44660;42.664;23.266;2022-10-16T02:38:20;95218.22;;;7.33;71.56
58879;BME280;44660;42.664;23.266;2022-10-16T02:40:46;95228.19;;;7.38;71.72
58879;BME280;44660;42.664;23.266;2022-10-16T02:43:12;95237.75;;;7.39;71.87
58879;BME280;44660;42.664;23.266;2022-10-16T02:45:38;95242.44;;;7.30;72.26
58879;BME280;44660;42.664;23.266;2022-10-16T02:48:04;95236.56;;;7.28;72.39
58879;BME280;44660;42.664;23.266;2022-10-16T02:50:29;95251.38;;;7.42;72.20
58879;BME280;44660;42.664;23.266;2022-10-16T02:52:55;95248.94;;;7.47;71.54
58879;BME280;44660;42.664;23.266;2022-10-16T02:55:20;95246.50;;;7.46;71.28
58879;BME280;44660;42.664;23.266;2022-10-16T02:57:45;95256.66;;;7.49;71.38
58879;BME280;44660;42.664;23.266;2022-10-16T03:00:14;95258.50;;;7.48;71.47
58879;BME280;44660;42.664;23.266;2022-10-16T03:02:40;95259.53;;;7.47;71.45
58879;BME280;44660;42.664;23.266;2022-10-16T03:05:06;95247.53;;;7.38;71.51
58879;BME280;44660;42.664;23.266;2022-10-16T03:07:31;95238.38;;;7.34;71.42
58879;BME280;44660;42.664;23.266;2022-10-16T03:09:56;95259.13;;;7.50;71.55
58879;BME280;44660;42.664;23.266;2022-10-16T03:12:26;95265.81;;;7.46;71.45
58879;BME280;44660;42.664;23.266;2022-10-16T03:14:58;95251.00;;;7.32;71.76
58879;BME280;44660;42.664;23.266;2022-10-16T03:17:32;95256.69;;;7.35;71.84
58879;BME280;44660;42.664;23.266;2022-10-16T03:19:58;95255.66;;;7.23;71.85
58879;BME280;44660;42.664;23.266;2022-10-16T03:22:23;95197.69;;;6.81;71.96
58879;BME280;44660;42.664;23.266;2022-10-16T03:24:48;95230.66;;;6.99;72.03
58879;BME280;44660;42.664;23.266;2022-10-16T03:27:14;95246.53;;;7.12;71.73
58879;BME280;44660;42.664;23.266;2022-10-16T03:29:39;95277.88;;;7.29;71.76
58879;BME280;44660;42.664;23.266;2022-10-16T03:32:05;95281.09;;;7.31;71.61
58879;BME280;44660;42.664;23.266;2022-10-16T03:34:30;95268.09;;;7.23;71.83
58879;BME280;44660;42.664;23.266;2022-10-16T03:36:55;95219.47;;;6.83;71.82
58879;BME280;44660;42.664;23.266;2022-10-16T03:39:21;95267.06;;;7.10;71.80
58879;BME280;44660;42.664;23.266;2022-10-16T03:41:46;95281.50;;;7.08;71.78
58879;BME280;44660;42.664;23.266;2022-10-16T03:44:13;95270.50;;;6.91;72.17
58879;BME280;44660;42.664;23.266;2022-10-16T03:46:38;95246.50;;;6.79;72.27
58879;BME280;44660;42.664;23.266;2022-10-16T03:49:03;95230.59;;;6.59;72.54
58879;BME280;44660;42.664;23.266;2022-10-16T03:51:29;95273.72;;;6.66;73.51
58879;BME280;44660;42.664;23.266;2022-10-16T03:53:54;95273.28;;;6.56;74.00
58879;BME280;44660;42.664;23.266;2022-10-16T03:56:20;95268.44;;;6.66;73.69
58879;BME280;44660;42.664;23.266;2022-10-16T03:58:45;95263.38;;;6.71;73.65
58879;BME280;44660;42.664;23.266;2022-10-16T04:01:11;95236.31;;;6.56;73.62
58879;BME280;44660;42.664;23.266;2022-10-16T04:03:36;95244.44;;;6.61;73.85
58879;BME280;44660;42.664;23.266;2022-10-16T04:06:01;95271.13;;;6.86;73.30
58879;BME280;44660;42.664;23.266;2022-10-16T04:08:27;95222.88;;;6.64;73.50
58879;BME280;44660;42.664;23.266;2022-10-16T04:10:52;95251.78;;;6.85;73.22
58879;BME280;44660;42.664;23.266;2022-10-16T04:13:18;95258.31;;;6.90;72.79
58879;BME280;44660;42.664;23.266;2022-10-16T04:15:44;95266.88;;;6.98;72.45
58879;BME280;44660;42.664;23.266;2022-10-16T04:18:10;95269.31;;;7.00;72.30
58879;BME280;44660;42.664;23.266;2022-10-16T04:20:35;95271.31;;;6.98;72.37
58879;BME280;44660;42.664;23.266;2022-10-16T04:23:01;95187.31;;;6.46;71.97
58879;BME280;44660;42.664;23.266;2022-10-16T04:25:26;95248.13;;;6.86;72.14
58879;BME280;44660;42.664;23.266;2022-10-16T04:27:55;95262.19;;;6.94;72.00
58879;BME280;44660;42.664;23.266;2022-10-16T04:30:21;95250.56;;;6.75;71.87
58879;BME280;44660;42.664;23.266;2022-10-16T04:32:53;95276.81;;;6.90;72.11
58879;BME280;44660;42.664;23.266;2022-10-16T04:35:19;95283.50;;;6.72;72.20
58879;BME280;44660;42.664;23.266;2022-10-16T04:37:45;95269.66;;;6.70;72.50
58879;BME280;44660;42.664;23.266;2022-10-16T04:40:11;95282.28;;;6.81;72.30
58879;BME280;44660;42.664;23.266;2022-10-16T04:42:37;95273.75;;;6.79;72.05
58879;BME280;44660;42.664;23.266;2022-10-16T04:45:04;95288.78;;;6.72;72.34
58879;BME280;44660;42.664;23.266;2022-10-16T04:47:29;95289.59;;;6.73;72.48
58879;BME280;44660;42.664;23.266;2022-10-16T04:49:55;95290.38;;;6.66;72.28
58879;BME280;44660;42.664;23.266;2022-10-16T04:52:20;95295.66;;;6.60;72.64
58879;BME280;44660;42.664;23.266;2022-10-16T04:54:46;95296.44;;;6.53;72.73
58879;BME280;44660;42.664;23.266;2022-10-16T04:57:12;95301.56;;;6.62;72.60
58879;BME280;44660;42.664;23.266;2022-10-16T04:59:37;95305.84;;;6.69;72.18
58879;BME280;44660;42.664;23.266;2022-10-16T05:02:03;95313.59;;;6.71;72.57
58879;BME280;44660;42.664;23.266;2022-10-16T05:04:28;95301.16;;;6.65;72.22
58879;BME280;44660;42.664;23.266;2022-10-16T05:06:54;95313.16;;;6.74;72.36
58879;BME280;44660;42.664;23.266;2022-10-16T05:09:19;95289.53;;;6.52;72.61
58879;BME280;44660;42.664;23.266;2022-10-16T05:11:44;95308.88;;;6.60;72.79
58879;BME280;44660;42.664;23.266;2022-10-16T05:14:10;95308.44;;;6.49;73.04
58879;BME280;44660;42.664;23.266;2022-10-16T05:16:35;95316.00;;;6.66;73.01
58879;BME280;44660;42.664;23.266;2022-10-16T05:19:01;95316.03;;;6.73;72.83
58879;BME280;44660;42.664;23.266;2022-10-16T05:21:26;95313.78;;;6.69;73.27
58879;BME280;44660;42.664;23.266;2022-10-16T05:23:53;95316.84;;;6.80;72.90
58879;BME280;44660;42.664;23.266;2022-10-16T05:26:19;95303.06;;;6.84;72.44
58879;BME280;44660;42.664;23.266;2022-10-16T05:28:44;95316.09;;;7.06;72.56
58879;BME280;44660;42.664;23.266;2022-10-16T05:31:10;95315.91;;;7.01;72.57
58879;BME280;44660;42.664;23.266;2022-10-16T05:33:35;95326.69;;;7.19;72.31
58879;BME280;44660;42.664;23.266;2022-10-16T05:36:02;95308.38;;;7.11;72.54
58879;BME280;44660;42.664;23.266;2022-10-16T05:38:28;95326.28;;;7.36;72.43
58879;BME280;44660;42.664;23.266;2022-10-16T05:40:53;95323.84;;;7.41;72.04
58879;BME280;44660;42.664;23.266;2022-10-16T05:43:19;95320.59;;;7.39;71.95
58879;BME280;44660;42.664;23.266;2022-10-16T05:45:53;95330.75;;;7.49;71.71
58879;BME280;44660;42.664;23.266;2022-10-16T05:48:19;95293.75;;;7.29;71.73
58879;BME280;44660;42.664;23.266;2022-10-16T05:50:44;95340.34;;;7.63;71.81
58879;BME280;44660;42.664;23.266;2022-10-16T05:53:10;95339.69;;;7.68;72.04
58879;BME280;44660;42.664;23.266;2022-10-16T05:55:35;95342.16;;;7.76;71.93
58879;BME280;44660;42.664;23.266;2022-10-16T05:58:01;95346.63;;;7.82;71.62
58879;BME280;44660;42.664;23.266;2022-10-16T06:00:26;95343.78;;;7.84;71.56
58879;BME280;44660;42.664;23.266;2022-10-16T06:02:51;95292.09;;;7.55;71.52
58879;BME280;44660;42.664;23.266;2022-10-16T06:05:17;95366.19;;;7.95;71.68
58879;BME280;44660;42.664;23.266;2022-10-16T06:07:42;95369.84;;;7.94;71.97
58879;BME280;44660;42.664;23.266;2022-10-16T06:10:08;95354.75;;;8.01;72.48
58879;BME280;44660;42.664;23.266;2022-10-16T06:12:34;95370.19;;;8.17;72.39
58879;BME280;44660;42.664;23.266;2022-10-16T06:14:59;95370.63;;;8.01;72.49
58879;BME280;44660;42.664;23.266;2022-10-16T06:17:24;95359.66;;;7.84;72.33
58879;BME280;44660;42.664;23.266;2022-10-16T06:19:50;95375.50;;;8.24;71.74
58879;BME280;44660;42.664;23.266;2022-10-16T06:22:15;95373.63;;;8.38;71.38
58879;BME280;44660;42.664;23.266;2022-10-16T06:24:41;95378.28;;;8.43;71.01
58879;BME280;44660;42.664;23.266;2022-10-16T06:27:06;95374.03;;;8.48;70.38
58879;BME280;44660;42.664;23.266;2022-10-16T06:29:31;95361.78;;;8.47;70.24
58879;BME280;44660;42.664;23.266;2022-10-16T06:31:57;95384.34;;;8.70;69.89
58879;BME280;44660;42.664;23.266;2022-10-16T06:34:22;95368.59;;;8.82;69.47
58879;BME280;44660;42.664;23.266;2022-10-16T06:36:48;95385.16;;;8.77;69.87
58879;BME280;44660;42.664;23.266;2022-10-16T06:39:13;95386.75;;;8.85;69.68
58879;BME280;44660;42.664;23.266;2022-10-16T06:41:39;95381.63;;;8.83;69.63
58879;BME280;44660;42.664;23.266;2022-10-16T06:44:07;95387.75;;;8.84;69.94
58879;BME280;44660;42.664;23.266;2022-10-16T06:46:33;95394.69;;;8.85;69.98
58879;BME280;44660;42.664;23.266;2022-10-16T06:48:58;95393.00;;;8.97;69.44
58879;BME280;44660;42.664;23.266;2022-10-16T06:51:24;95386.59;;;9.12;69.04
58879;BME280;44660;42.664;23.266;2022-10-16T06:53:54;95391.09;;;9.11;68.53
58879;BME280;44660;42.664;23.266;2022-10-16T06:56:26;95411.41;;;9.31;68.54
58879;BME280;44660;42.664;23.266;2022-10-16T06:58:52;95401.19;;;9.28;68.78
58879;BME280;44660;42.664;23.266;2022-10-16T07:01:20;95391.25;;;9.23;67.83
58879;BME280;44660;42.664;23.266;2022-10-16T07:03:46;95403.72;;;9.48;67.08
58879;BME280;44660;42.664;23.266;2022-10-16T07:06:14;95409.88;;;9.42;67.40
58879;BME280;44660;42.664;23.266;2022-10-16T07:08:41;95411.06;;;9.53;67.37
58879;BME280;44660;42.664;23.266;2022-10-16T07:11:18;95407.78;;;9.51;67.31
58879;BME280;44660;42.664;23.266;2022-10-16T07:13:45;95418.13;;;9.66;66.94
58879;BME280;44660;42.664;23.266;2022-10-16T07:16:14;95422.19;;;9.68;67.01
58879;BME280;44660;42.664;23.266;2022-10-16T07:18:41;95422.41;;;9.92;66.47
58879;BME280;44660;42.664;23.266;2022-10-16T07:21:10;95424.53;;;10.08;65.66
58879;BME280;44660;42.664;23.266;2022-10-16T07:23:36;95426.25;;;10.21;65.41
58879;BME280;44660;42.664;23.266;2022-10-16T07:26:03;95411.72;;;10.24;65.33
58879;BME280;44660;42.664;23.266;2022-10-16T07:28:29;95397.09;;;10.33;64.35
58879;BME280;44660;42.664;23.266;2022-10-16T07:30:54;95350.25;;;10.39;63.86
58879;BME280;44660;42.664;23.266;2022-10-16T07:33:20;95416.59;;;11.20;62.47
58879;BME280;44660;42.664;23.266;2022-10-16T07:35:53;95413.91;;;11.50;61.56
58879;BME280;44660;42.664;23.266;2022-10-16T07:38:19;95418.16;;;12.24;60.22
58879;BME280;44660;42.664;23.266;2022-10-16T07:40:45;95411.88;;;13.64;55.68
58879;BME280;44660;42.664;23.266;2022-10-16T07:43:10;95393.88;;;16.53;47.34
58879;BME280;44660;42.664;23.266;2022-10-16T07:45:36;95397.16;;;20.93;38.82
58879;BME280;44660;42.664;23.266;2022-10-16T07:48:01;95384.91;;;24.33;31.62
58879;BME280;44660;42.664;23.266;2022-10-16T07:50:27;95394.69;;;26.77;28.79
58879;BME280;44660;42.664;23.266;2022-10-16T07:52:52;95397.91;;;29.37;25.15
58879;BME280;44660;42.664;23.266;2022-10-16T07:55:17;95388.88;;;31.51;22.23
58879;BME280;44660;42.664;23.266;2022-10-16T07:57:43;95389.03;;;33.18;19.86
58879;BME280;44660;42.664;23.266;2022-10-16T08:00:09;95383.13;;;34.99;18.81
58879;BME280;44660;42.664;23.266;2022-10-16T08:02:41;95382.03;;;36.40;16.58
58879;BME280;44660;42.664;23.266;2022-10-16T08:05:07;95382.22;;;37.27;15.45
58879;BME280;44660;42.664;23.266;2022-10-16T08:07:35;95378.47;;;38.28;15.01
58879;BME280;44660;42.664;23.266;2022-10-16T08:10:00;95369.97;;;39.24;13.92
58879;BME280;44660;42.664;23.266;2022-10-16T08:12:26;95331.13;;;39.58;13.75
58879;BME280;44660;42.664;23.266;2022-10-16T08:14:51;95366.63;;;40.54;13.39
58879;BME280;44660;42.664;23.266;2022-10-16T08:17:17;95367.38;;;41.13;12.55
58879;BME280;44660;42.664;23.266;2022-10-16T08:19:46;95363.72;;;41.40;12.32
58879;BME280;44660;42.664;23.266;2022-10-16T08:22:12;95342.38;;;41.53;12.18
58879;BME280;44660;42.664;23.266;2022-10-16T08:24:38;95328.69;;;41.39;11.81
58879;BME280;44660;42.664;23.266;2022-10-16T08:27:03;95362.28;;;41.99;11.96
58879;BME280;44660;42.664;23.266;2022-10-16T08:29:29;95355.94;;;42.92;10.99
58879;BME280;44660;42.664;23.266;2022-10-16T08:31:54;95354.31;;;43.28;10.71
58879;BME280;44660;42.664;23.266;2022-10-16T08:34:20;95355.88;;;43.91;10.57
58879;BME280;44660;42.664;23.266;2022-10-16T08:36:45;95346.53;;;43.81;9.84
58879;BME280;44660;42.664;23.266;2022-10-16T08:39:11;95360.84;;;43.37;9.94
58879;BME280;44660;42.664;23.266;2022-10-16T08:44:51;95351.00;;;45.02;9.23
58879;BME280;44660;42.664;23.266;2022-10-16T08:47:21;95352.25;;;44.20;9.74
58879;BME280;44660;42.664;23.266;2022-10-16T08:49:56;95339.44;;;43.14;9.96
58879;BME280;44660;42.664;23.266;2022-10-16T08:52:25;95342.81;;;44.01;10.12
58879;BME280;44660;42.664;23.266;2022-10-16T08:54:55;95354.03;;;44.14;9.67
58879;BME280;44660;42.664;23.266;2022-10-16T08:57:22;95340.69;;;44.05;9.09
58879;BME280;44660;42.664;23.266;2022-10-16T08:59:49;95349.13;;;42.00;10.82
58879;BME280;44660;42.664;23.266;2022-10-16T09:02:24;95358.47;;;43.36;10.50
58879;BME280;44660;42.664;23.266;2022-10-16T09:07:32;95345.41;;;45.02;9.17
58879;BME280;44660;42.664;23.266;2022-10-16T09:13:08;95357.22;;;45.58;8.44
58879;BME280;44660;42.664;23.266;2022-10-16T09:23:35;95329.38;;;45.51;8.10
58879;BME280;44660;42.664;23.266;2022-10-16T09:26:02;95325.09;;;45.11;8.47
58879;BME280;44660;42.664;23.266;2022-10-16T09:28:29;95318.59;;;44.49;8.31
58879;BME280;44660;42.664;23.266;2022-10-16T09:30:54;95324.44;;;44.55;8.87
58879;BME280;44660;42.664;23.266;2022-10-16T09:33:32;95328.91;;;45.04;7.98
58879;BME280;44660;42.664;23.266;2022-10-16T09:35:58;95330.28;;;45.12;7.86
58879;BME280;44660;42.664;23.266;2022-10-16T09:38:35;95335.28;;;44.66;8.40
58879;BME280;44660;42.664;23.266;2022-10-16T09:41:17;95335.78;;;45.03;7.98
58879;BME280;44660;42.664;23.266;2022-10-16T09:46:25;95333.63;;;44.43;8.36
58879;BME280;44660;42.664;23.266;2022-10-16T09:49:35;95327.81;;;42.83;8.99
58879;BME280;44660;42.664;23.266;2022-10-16T09:51:41;95318.91;;;41.94;9.58
58879;BME280;44660;42.664;23.266;2022-10-16T09:54:14;95325.91;;;42.03;9.46
58879;BME280;44660;42.664;23.266;2022-10-16T09:56:40;95313.00;;;42.49;9.32
58879;BME280;44660;42.664;23.266;2022-10-16T10:01:49;95314.53;;;42.34;9.08
58879;BME280;44660;42.664;23.266;2022-10-16T10:04:16;95315.06;;;42.29;9.45
58879;BME280;44660;42.664;23.266;2022-10-16T10:06:50;95303.88;;;42.29;9.23
58879;BME280;44660;42.664;23.266;2022-10-16T10:09:20;95310.75;;;41.84;9.79
58879;BME280;44660;42.664;23.266;2022-10-16T10:14:47;95307.69;;;39.14;10.90
58879;BME280;44660;42.664;23.266;2022-10-16T10:20:28;95306.34;;;35.23;13.71
58879;BME280;44660;42.664;23.266;2022-10-16T10:22:55;95299.66;;;32.19;15.82
58879;BME280;44660;42.664;23.266;2022-10-16T10:28:43;95316.94;;;29.23;19.23
58879;BME280;44660;42.664;23.266;2022-10-16T10:39:13;95285.00;;;26.63;20.80
58879;BME280;44660;42.664;23.266;2022-10-16T10:55:51;95274.91;;;25.98;22.25
58879;BME280;44660;42.664;23.266;2022-10-16T10:58:53;95286.94;;;25.97;21.46
58879;BME280;44660;42.664;23.266;2022-10-16T11:01:29;95282.13;;;26.12;22.14
58879;BME280;44660;42.664;23.266;2022-10-16T11:07:18;95267.13;;;26.44;20.95
58879;BME280;44660;42.664;23.266;2022-10-16T11:09:49;95259.22;;;25.86;21.01
58879;BME280;44660;42.664;23.266;2022-10-16T11:12:20;95269.50;;;25.54;22.47
58879;BME280;44660;42.664;23.266;2022-10-16T11:17:38;95270.69;;;24.78;23.55
58879;BME280;44660;42.664;23.266;2022-10-16T11:20:13;95272.22;;;24.61;22.80
58879;BME280;44660;42.664;23.266;2022-10-16T11:22:46;95256.44;;;24.72;21.78
58879;BME280;44660;42.664;23.266;2022-10-16T11:25:26;95264.56;;;24.64;22.36
58879;BME280;44660;42.664;23.266;2022-10-16T11:30:30;95266.75;;;24.21;23.58
58879;BME280;44660;42.664;23.266;2022-10-16T11:35:28;95262.88;;;24.13;23.19
58879;BME280;44660;42.664;23.266;2022-10-16T11:37:57;95252.03;;;24.13;23.76
58879;BME280;44660;42.664;23.266;2022-10-16T11:40:29;95264.69;;;24.18;22.24
58879;BME280;44660;42.664;23.266;2022-10-16T11:43:04;95266.66;;;24.26;22.89
58879;BME280;44660;42.664;23.266;2022-10-16T11:45:39;95238.91;;;23.84;23.01
58879;BME280;44660;42.664;23.266;2022-10-16T11:48:24;95265.09;;;24.34;22.48
58879;BME280;44660;42.664;23.266;2022-10-16T11:51:05;95260.47;;;24.43;22.55
58879;BME280;44660;42.664;23.266;2022-10-16T11:56:06;95261.09;;;24.40;21.27
58879;BME280;44660;42.664;23.266;2022-10-16T11:58:40;95274.88;;;24.12;21.41
58879;BME280;44660;42.664;23.266;2022-10-16T12:06:32;95263.72;;;24.14;21.92
58879;BME280;44660;42.664;23.266;2022-10-16T12:09:00;95245.34;;;24.20;22.62
58879;BME280;44660;42.664;23.266;2022-10-16T12:13:52;95263.16;;;24.03;24.20
58879;BME280;44660;42.664;23.266;2022-10-16T12:16:28;95261.91;;;23.87;24.89
58879;BME280;44660;42.664;23.266;2022-10-16T12:19:14;95263.94;;;23.95;23.85
58879;BME280;44660;42.664;23.266;2022-10-16T12:21:42;95264.25;;;23.93;22.52
58879;BME280;44660;42.664;23.266;2022-10-16T12:24:42;95265.53;;;23.73;23.15
58879;BME280;44660;42.664;23.266;2022-10-16T12:27:22;95258.22;;;23.37;24.50
58879;BME280;44660;42.664;23.266;2022-10-16T12:29:55;95279.56;;;23.53;25.00
58879;BME280;44660;42.664;23.266;2022-10-16T12:32:31;95257.19;;;23.70;24.47
58879;BME280;44660;42.664;23.266;2022-10-16T12:34:58;95221.13;;;23.46;24.12
58879;BME280;44660;42.664;23.266;2022-10-16T12:37:27;95254.16;;;23.48;25.13
58879;BME280;44660;42.664;23.266;2022-10-16T12:40:44;95273.94;;;23.26;26.33
58879;BME280;44660;42.664;23.266;2022-10-16T12:42:47;95265.88;;;23.35;25.58
58879;BME280;44660;42.664;23.266;2022-10-16T12:45:33;95267.09;;;23.29;23.62
58879;BME280;44660;42.664;23.266;2022-10-16T12:48:17;95273.72;;;23.37;24.28
58879;BME280;44660;42.664;23.266;2022-10-16T12:50:43;95268.09;;;23.33;25.74
58879;BME280;44660;42.664;23.266;2022-10-16T12:53:23;95267.69;;;23.26;26.09
58879;BME280;44660;42.664;23.266;2022-10-16T13:01:23;95251.72;;;22.60;27.02
58879;BME280;44660;42.664;23.266;2022-10-16T13:04:17;95283.72;;;22.86;26.93
58879;BME280;44660;42.664;23.266;2022-10-16T13:06:55;95269.69;;;22.70;25.67
58879;BME280;44660;42.664;23.266;2022-10-16T13:14:43;95289.06;;;22.77;26.52
58879;BME280;44660;42.664;23.266;2022-10-16T13:17:25;95275.00;;;22.47;26.40
58879;BME280;44660;42.664;23.266;2022-10-16T13:28:09;95280.41;;;22.61;26.81
58879;BME280;44660;42.664;23.266;2022-10-16T13:35:31;95265.84;;;21.82;27.41
58879;BME280;44660;42.664;23.266;2022-10-16T13:38:18;95289.91;;;21.83;27.57
58879;BME280;44660;42.664;23.266;2022-10-16T13:46:23;95291.47;;;21.51;27.11
58879;BME280;44660;42.664;23.266;2022-10-16T13:49:03;95294.19;;;21.51;27.26
58879;BME280;44660;42.664;23.266;2022-10-16T13:51:29;95295.22;;;21.56;27.34
58879;BME280;44660;42.664;23.266;2022-10-16T13:53:56;95294.13;;;21.57;27.31
58879;BME280;44660;42.664;23.266;2022-10-16T13:56:25;95284.84;;;21.44;27.84
58879;BME280;44660;42.664;23.266;2022-10-16T13:59:07;95273.88;;;21.16;28.03
58879;BME280;44660;42.664;23.266;2022-10-16T14:01:47;95293.44;;;21.27;28.07
58879;BME280;44660;42.664;23.266;2022-10-16T14:04:13;95279.44;;;21.25;28.29
58879;BME280;44660;42.664;23.266;2022-10-16T14:06:41;95259.69;;;21.05;27.77
58879;BME280;44660;42.664;23.266;2022-10-16T14:09:29;95290.88;;;21.16;28.63
58879;BME280;44660;42.664;23.266;2022-10-16T14:11:58;95295.44;;;21.21;29.62
58879;BME280;44660;42.664;23.266;2022-10-16T14:14:29;95294.97;;;21.14;28.73
58879;BME280;44660;42.664;23.266;2022-10-16T14:16:56;95281.13;;;21.01;29.44
58879;BME280;44660;42.664;23.266;2022-10-16T14:19:24;95289.72;;;21.03;29.62
58879;BME280;44660;42.664;23.266;2022-10-16T14:21:51;95300.31;;;21.00;29.52
58879;BME280;44660;42.664;23.266;2022-10-16T14:26:51;95307.75;;;20.65;30.16
58879;BME280;44660;42.664;23.266;2022-10-16T14:29:19;95306.19;;;20.34;29.28
58879;BME280;44660;42.664;23.266;2022-10-16T14:32:02;95309.78;;;20.25;29.86
58879;BME280;44660;42.664;23.266;2022-10-16T14:34:36;95314.09;;;20.26;30.37
58879;BME280;44660;42.664;23.266;2022-10-16T14:37:27;95319.59;;;20.15;29.80
58879;BME280;44660;42.664;23.266;2022-10-16T14:39:54;95319.91;;;20.09;29.55
58879;BME280;44660;42.664;23.266;2022-10-16T14:42:22;95296.34;;;19.55;28.92
58879;BME280;44660;42.664;23.266;2022-10-16T14:44:52;95314.06;;;19.22;29.54
58879;BME280;44660;42.664;23.266;2022-10-16T14:47:20;95329.69;;;19.25;30.20
58879;BME280;44660;42.664;23.266;2022-10-16T14:49:50;95276.81;;;18.79;30.38
58879;BME280;44660;42.664;23.266;2022-10-16T14:52:16;95316.72;;;18.72;30.60
58879;BME280;44660;42.664;23.266;2022-10-16T14:54:41;95337.72;;;18.70;31.67
58879;BME280;44660;42.664;23.266;2022-10-16T14:57:17;95333.78;;;18.36;32.02
58879;BME280;44660;42.664;23.266;2022-10-16T14:59:44;95314.75;;;18.07;31.87
58879;BME280;44660;42.664;23.266;2022-10-16T15:02:27;95348.34;;;18.15;32.48
58879;BME280;44660;42.664;23.266;2022-10-16T15:04:53;95343.00;;;18.04;32.35
58879;BME280;44660;42.664;23.266;2022-10-16T15:07:19;95348.09;;;17.90;31.78